createdAt,value
2023-01-13T00:07:32.571Z,9.7
2023-01-13T00:12:42.113Z,9.8
2023-01-13T00:13:10.503Z,9.7
2023-01-13T00:14:31.828Z,9.9
2023-01-13T00:15:32.025Z,9.8
2023-01-13T00:16:31.353Z,9.8
2023-01-13T00:17:31.911Z,9.8
2023-01-13T00:18:31.591Z,9.8
2023-01-13T00:19:31.829Z,9.8
2023-01-13T00:20:31.354Z,9.9
2023-01-13T00:21:31.357Z,9.9
2023-01-13T00:22:31.353Z,9.8
2023-01-13T00:24:31.973Z,9.8
2023-01-13T00:25:31.364Z,9.7
2023-01-13T00:26:31.365Z,9.7
2023-01-13T00:27:31.366Z,9.7
2023-01-13T00:28:31.375Z,9.7
2023-01-13T00:29:31.361Z,9.7
2023-01-13T00:30:31.378Z,9.7
2023-01-13T00:31:32.119Z,9.7
2023-01-13T00:32:31.988Z,9.8
2023-01-13T00:33:31.367Z,9.7
2023-01-13T00:34:31.358Z,9.8
2023-01-13T00:35:31.362Z,9.7
2023-01-13T00:36:31.482Z,9.8
2023-01-13T00:37:31.760Z,9.8
2023-01-13T00:38:31.994Z,9.7
2023-01-13T00:39:32.107Z,9.7
2023-01-13T00:40:31.371Z,9.7
2023-01-13T00:41:31.366Z,9.8
2023-01-13T00:42:31.369Z,9.8
2023-01-13T00:43:31.688Z,9.9
2023-01-13T00:44:32.154Z,9.8
2023-01-13T00:45:32.227Z,9.8
2023-01-13T00:46:31.447Z,9.7
2023-01-13T00:47:31.362Z,9.8
2023-01-13T00:48:32.038Z,9.8
2023-01-13T00:49:31.392Z,9.8
2023-01-13T00:50:32.026Z,9.8
2023-01-13T00:51:31.755Z,9.9
2023-01-13T00:52:31.742Z,9.9
2023-01-13T00:53:31.365Z,9.9
2023-01-13T01:10:43.242Z,9.8
2023-01-13T01:11:43.245Z,9.8
2023-01-13T01:12:43.268Z,9.8
2023-01-13T01:13:43.240Z,9.8
2023-01-13T01:14:43.273Z,9.7
2023-01-13T01:15:43.420Z,9.7
2023-01-13T01:16:43.269Z,9.7
2023-01-13T01:17:43.250Z,9.7
2023-01-13T01:18:43.258Z,9.6
2023-01-13T01:19:43.243Z,9.6
2023-01-13T01:20:43.254Z,9.7
2023-01-13T01:21:43.316Z,9.7
2023-01-13T01:22:43.254Z,9.7
2023-01-13T01:23:43.245Z,9.7
2023-01-13T01:24:43.250Z,9.6
2023-01-13T01:29:30.224Z,9.6
2023-01-13T01:33:12.600Z,9.5
2023-01-13T01:39:23.223Z,9.5
2023-01-13T01:41:14.406Z,9.4
2023-01-13T01:46:11.271Z,9.5
2023-01-13T01:58:31.942Z,9.4
2023-01-13T01:59:14.087Z,9.5
2023-01-13T01:59:20.838Z,9.4
2023-01-13T01:59:42.190Z,9.5
2023-01-13T02:00:31.419Z,9.4
2023-01-13T02:01:31.816Z,9.4
2023-01-13T02:02:31.504Z,9.4
2023-01-13T02:03:31.754Z,9.4
2023-01-13T02:04:31.462Z,9.3
2023-01-13T02:05:31.524Z,9.4
2023-01-13T02:06:31.814Z,9.3
2023-01-13T02:07:31.952Z,9.3
2023-01-13T02:08:31.403Z,9.3
2023-01-13T02:09:31.437Z,9.3
2023-01-13T02:10:31.917Z,9.2
2023-01-13T02:11:31.509Z,9.2
2023-01-13T02:12:31.384Z,9.2
2023-01-13T02:13:32.109Z,9.3
2023-01-13T02:14:31.389Z,9.2
2023-01-13T02:15:31.630Z,9.3
2023-01-13T02:16:31.479Z,9.2
2023-01-13T02:17:31.741Z,9.2
2023-01-13T02:18:31.405Z,9.2
2023-01-13T02:19:31.815Z,9.2
2023-01-13T02:20:32.089Z,9.2
2023-01-13T02:21:32.193Z,9.1
2023-01-13T02:22:31.406Z,9.1
2023-01-13T02:23:31.435Z,9.1
2023-01-13T02:24:31.391Z,9.1
2023-01-13T02:25:31.512Z,9.1
2023-01-13T02:26:32.110Z,9
2023-01-13T02:27:31.607Z,9
2023-01-13T02:28:32.140Z,9
2023-01-13T02:29:32.136Z,9
2023-01-13T02:30:31.556Z,9.1
2023-01-13T02:31:31.880Z,9.1
2023-01-13T02:32:31.792Z,9.1
2023-01-13T02:33:31.581Z,9
2023-01-13T02:34:31.425Z,9.1
2023-01-13T02:35:31.393Z,9.1
2023-01-13T02:36:32.162Z,9.1
2023-01-13T02:37:31.769Z,9
2023-01-13T02:38:31.850Z,9
2023-01-13T02:39:31.400Z,9.1
2023-01-13T02:57:43.286Z,9
2023-01-13T02:58:43.276Z,8.9
2023-01-13T02:59:43.299Z,8.9
2023-01-13T03:00:43.409Z,8.8
2023-01-13T03:01:43.570Z,8.8
2023-01-13T03:02:43.404Z,8.8
2023-01-13T03:03:43.305Z,8.7
2023-01-13T03:04:43.283Z,8.7
2023-01-13T03:05:43.279Z,8.7
2023-01-13T03:06:43.280Z,8.7
2023-01-13T03:07:43.295Z,8.6
2023-01-13T03:08:43.316Z,8.6
2023-01-13T03:09:43.284Z,8.6
2023-01-13T03:10:43.278Z,8.6
2023-01-13T03:11:43.287Z,8.5
2023-01-13T03:12:43.301Z,8.5
2023-01-13T03:16:30.312Z,8.5
2023-01-13T03:20:12.632Z,8.4
2023-01-13T03:28:14.428Z,8.4
2023-01-13T03:33:10.937Z,8.2
2023-01-13T03:43:41.442Z,8.1
2023-01-13T04:00:12.393Z,8.1
2023-01-13T04:01:31.823Z,8.1
2023-01-13T04:02:31.421Z,8.1
2023-01-13T04:03:31.557Z,8.1
2023-01-13T04:04:31.778Z,8.1
2023-01-13T04:05:32.506Z,8.1
2023-01-13T04:06:31.952Z,8.1
2023-01-13T04:07:31.787Z,8.1
2023-01-13T04:08:31.477Z,8
2023-01-13T04:09:31.780Z,8
2023-01-13T04:10:31.417Z,8
2023-01-13T04:11:31.419Z,8
2023-01-13T04:12:31.999Z,8
2023-01-13T04:13:31.642Z,8
2023-01-13T04:14:31.413Z,8
2023-01-13T04:15:31.510Z,8
2023-01-13T04:16:31.434Z,7.9
2023-01-13T04:17:31.483Z,7.9
2023-01-13T04:18:32.136Z,7.9
2023-01-13T04:19:31.417Z,7.9
2023-01-13T04:20:31.691Z,8
2023-01-13T04:21:31.439Z,8
2023-01-13T04:22:31.888Z,8
2023-01-13T04:23:32.232Z,7.9
2023-01-13T04:24:31.430Z,7.9
2023-01-13T04:25:31.420Z,7.9
2023-01-13T04:26:31.422Z,7.9
2023-01-13T04:27:31.427Z,7.8
2023-01-13T04:28:31.422Z,7.8
2023-01-13T04:29:32.138Z,7.9
2023-01-13T04:30:31.419Z,7.9
2023-01-13T04:31:32.007Z,7.9
2023-01-13T04:32:31.524Z,7.9
2023-01-13T04:33:31.883Z,7.9
2023-01-13T04:34:32.144Z,7.9
2023-01-13T04:35:31.430Z,7.9
2023-01-13T04:36:32.049Z,8
2023-01-13T04:37:32.326Z,7.9
2023-01-13T04:38:31.414Z,7.9
2023-01-13T04:39:31.590Z,8
2023-01-13T04:40:32.176Z,8
2023-01-13T04:41:31.429Z,8
2023-01-13T04:58:43.307Z,8.1
2023-01-13T04:59:43.302Z,8.1
2023-01-13T05:01:43.446Z,8.1
2023-01-13T05:02:43.307Z,8.1
2023-01-13T05:03:43.317Z,8.1
2023-01-13T05:04:43.359Z,8.1
2023-01-13T05:05:43.303Z,8.1
2023-01-13T05:06:43.303Z,8.1
2023-01-13T05:07:43.348Z,8.1
2023-01-13T05:09:43.318Z,8.1
2023-01-13T05:10:43.311Z,8.1
2023-01-13T05:11:43.306Z,8.1
2023-01-13T05:12:43.315Z,8
2023-01-13T05:13:43.307Z,8
2023-01-13T05:18:30.277Z,8
2023-01-13T05:22:12.645Z,7.9
2023-01-13T05:35:11.351Z,8
2023-01-13T05:47:32.670Z,8
2023-01-13T05:53:43.339Z,8
2023-01-13T06:08:32.956Z,8.1
2023-01-13T06:22:13.116Z,8
2023-01-13T06:22:20.609Z,8
2023-01-13T06:23:32.139Z,8
2023-01-13T06:24:32.210Z,8
2023-01-13T06:25:31.923Z,7.9
2023-01-13T06:26:31.456Z,7.9
2023-01-13T06:27:31.462Z,7.9
2023-01-13T06:28:31.461Z,7.8
2023-01-13T06:29:31.594Z,7.8
2023-01-13T06:30:31.458Z,7.8
2023-01-13T06:31:31.472Z,7.8
2023-01-13T06:32:31.455Z,7.8
2023-01-13T06:33:32.158Z,7.7
2023-01-13T06:35:31.451Z,7.7
2023-01-13T06:36:31.460Z,7.6
2023-01-13T06:37:31.910Z,7.6
2023-01-13T06:38:31.760Z,7.6
2023-01-13T06:39:31.465Z,7.6
2023-01-13T06:40:31.475Z,7.6
2023-01-13T06:41:32.141Z,7.6
2023-01-13T06:42:31.706Z,7.6
2023-01-13T06:43:31.694Z,7.6
2023-01-13T06:44:31.475Z,7.6
2023-01-13T06:45:31.462Z,7.6
2023-01-13T06:46:31.523Z,7.5
2023-01-13T06:47:31.472Z,7.5
2023-01-13T06:48:31.603Z,7.5
2023-01-13T06:49:31.845Z,7.5
2023-01-13T06:50:32.382Z,7.5
2023-01-13T06:51:31.491Z,7.4
2023-01-13T06:52:32.430Z,7.5
2023-01-13T06:53:31.480Z,7.5
2023-01-13T06:54:32.322Z,7.5
2023-01-13T06:55:32.120Z,7.5
2023-01-13T06:56:30.426Z,7.5
2023-01-13T06:57:31.763Z,7.5
2023-01-13T06:58:31.609Z,7.4
2023-01-13T06:59:31.591Z,7.4
2023-01-13T07:00:32.125Z,7.4
2023-01-13T07:01:32.306Z,7.4
2023-01-13T07:02:31.578Z,7.4
2023-01-13T07:19:43.373Z,7.3
2023-01-13T07:20:43.348Z,7.3
2023-01-13T07:21:43.398Z,7.3
2023-01-13T07:22:43.349Z,7.3
2023-01-13T07:23:43.404Z,7.2
2023-01-13T07:24:43.350Z,7.3
2023-01-13T07:25:43.347Z,7.2
2023-01-13T07:26:43.377Z,7.2
2023-01-13T07:27:43.390Z,7.2
2023-01-13T07:28:43.352Z,7.2
2023-01-13T07:29:43.350Z,7.3
2023-01-13T07:30:43.352Z,7.2
2023-01-13T07:31:43.445Z,7.3
2023-01-13T07:32:43.358Z,7.3
2023-01-13T07:33:43.348Z,7.3
2023-01-13T07:34:43.347Z,7.3
2023-01-13T07:39:30.321Z,7.5
2023-01-13T07:43:12.723Z,7.5
2023-01-13T07:47:32.126Z,7.6
2023-01-13T07:51:14.521Z,7.6
2023-01-13T07:56:11.396Z,7.6
2023-01-13T08:08:32.734Z,7.6
2023-01-13T08:14:43.406Z,7.8
2023-01-13T08:29:32.985Z,8
2023-01-13T08:47:00.579Z,8.1
2023-01-13T08:47:10.820Z,8.1
2023-01-13T08:47:21.086Z,7.6
2023-01-13T08:48:12.492Z,7.5
2023-01-13T08:48:22.784Z,7.5
2023-01-13T08:48:33.062Z,7.6
2023-01-13T08:49:14.187Z,7.5
2023-01-13T09:30:43.382Z,8.6
2023-01-13T09:31:44.336Z,8.6
2023-01-13T09:33:43.373Z,8.6
2023-01-13T09:34:43.382Z,8.6
2023-01-13T09:35:43.371Z,8.6
2023-01-13T09:36:43.370Z,8.7
2023-01-13T09:37:43.371Z,8.7
2023-01-13T09:38:43.375Z,8.7
2023-01-13T09:39:43.379Z,8.7
2023-01-13T09:40:43.384Z,8.7
2023-01-13T09:41:43.401Z,8.7
2023-01-13T09:42:43.374Z,8.7
2023-01-13T09:43:43.391Z,8.7
2023-01-13T09:44:43.374Z,8.7
2023-01-13T09:45:43.377Z,8.7
2023-01-13T09:50:30.357Z,8.6
2023-01-13T09:54:12.724Z,8.8
2023-01-13T10:02:14.536Z,8.9
2023-01-13T10:25:43.432Z,9.2
2023-01-13T10:40:33.037Z,9.8
2023-01-13T11:10:13.090Z,9.7
2023-01-13T11:12:41.330Z,9.5
2023-01-13T11:27:31.024Z,9.5
2023-01-13T11:42:20.653Z,9.5
2023-01-13T11:52:13.749Z,9.7
2023-01-13T11:54:42.041Z,9.7
2023-01-13T11:57:10.296Z,9.5
2023-01-13T12:09:31.689Z,9.1
2023-01-13T12:24:21.345Z,8.9
2023-01-13T12:30:12.600Z,8.9
2023-01-13T12:30:40.662Z,8.7
2023-01-13T12:31:32.144Z,8.7
2023-01-13T12:32:32.261Z,8.6
2023-01-13T12:33:31.540Z,8.7
2023-01-13T12:34:32.094Z,8.7
2023-01-13T12:35:31.854Z,8.8
2023-01-13T12:36:31.678Z,8.9
2023-01-13T12:37:32.081Z,8.9
2023-01-13T12:38:34.274Z,8.9
2023-01-13T12:40:32.038Z,9
2023-01-13T12:41:31.706Z,9
2023-01-13T12:42:31.630Z,9
2023-01-13T12:43:31.635Z,9
2023-01-13T12:44:31.551Z,9
2023-01-13T12:45:31.627Z,9
2023-01-13T12:46:31.556Z,9.1
2023-01-13T12:47:32.186Z,9.1
2023-01-13T12:48:31.547Z,9.1
2023-01-13T12:50:31.829Z,9.1
2023-01-13T12:51:31.556Z,9.1
2023-01-13T12:52:32.475Z,9.2
2023-01-13T12:53:31.576Z,9.2
2023-01-13T12:54:31.661Z,9.2
2023-01-13T12:55:32.179Z,9.2
2023-01-13T12:56:32.519Z,9.2
2023-01-13T12:57:31.913Z,9.2
2023-01-13T12:58:32.214Z,9.2
2023-01-13T13:00:31.560Z,9.1
2023-01-13T13:01:32.672Z,9.1
2023-01-13T13:02:32.377Z,9.1
2023-01-13T13:03:31.552Z,9.1
2023-01-13T13:04:31.780Z,9.1
2023-01-13T13:05:32.171Z,9.2
2023-01-13T13:06:32.196Z,9.2
2023-01-13T13:07:31.550Z,9.2
2023-01-13T13:08:32.213Z,9.1
2023-01-13T13:09:31.581Z,9.1
2023-01-13T13:10:32.118Z,9
2023-01-13T13:11:32.180Z,9
2023-01-13T13:30:43.471Z,8.9
2023-01-13T13:32:43.447Z,9
2023-01-13T13:40:43.485Z,8.7
2023-01-13T13:47:30.420Z,8.7
2023-01-13T13:55:32.215Z,8.8
2023-01-13T13:59:14.590Z,8.9
2023-01-13T14:04:11.467Z,8.8
2023-01-13T14:16:32.754Z,8.6
2023-01-13T14:37:33.012Z,8.5
2023-01-13T14:41:42.589Z,8.7
2023-01-13T14:42:10.994Z,8.8
2023-01-13T14:44:31.496Z,8.4
2023-01-13T14:45:31.890Z,8.4
2023-01-13T14:46:31.543Z,8.5
2023-01-13T14:47:31.806Z,8.3
2023-01-13T14:48:31.725Z,8.4
2023-01-13T14:49:31.570Z,8.3
2023-01-13T14:50:32.118Z,8.3
2023-01-13T14:51:31.892Z,8.3
2023-01-13T14:52:32.314Z,8.3
2023-01-13T14:53:31.503Z,8.2
2023-01-13T14:54:32.059Z,8.2
2023-01-13T14:55:31.526Z,8.2
2023-01-13T14:56:31.504Z,8.3
2023-01-13T14:57:31.523Z,8.2
2023-01-13T14:58:32.241Z,8.3
2023-01-13T14:59:31.611Z,8.3
2023-01-13T15:00:31.507Z,8.3
2023-01-13T15:01:31.695Z,8.3
2023-01-13T15:02:34.046Z,8.2
2023-01-13T15:03:32.102Z,8.1
2023-01-13T15:04:32.198Z,8.1
2023-01-13T15:05:31.517Z,8.2
2023-01-13T15:06:31.879Z,8.2
2023-01-13T15:07:31.511Z,8.2
2023-01-13T15:08:33.989Z,8.1
2023-01-13T15:09:31.533Z,8.1
2023-01-13T15:10:31.498Z,8.1
2023-01-13T15:11:31.503Z,8.1
2023-01-13T15:12:31.756Z,8.1
2023-01-13T15:13:31.505Z,8.1
2023-01-13T15:14:31.881Z,8.1
2023-01-13T15:15:31.518Z,8
2023-01-13T15:16:34.640Z,8.1
2023-01-13T15:17:31.505Z,8.1
2023-01-13T15:18:31.517Z,8.1
2023-01-13T15:19:32.412Z,8.1
2023-01-13T15:20:32.091Z,8.1
2023-01-13T15:21:31.512Z,8.1
2023-01-13T15:22:32.403Z,8
2023-01-13T15:24:30.340Z,7.9
2023-01-13T15:40:43.419Z,8.2
2023-01-13T15:44:43.401Z,8.2
2023-01-13T15:49:43.398Z,8.1
2023-01-13T15:59:30.340Z,8.1
2023-01-13T16:03:12.784Z,8.1
2023-01-13T16:11:14.545Z,8.2
2023-01-13T16:16:11.430Z,8.2
2023-01-13T16:28:32.095Z,8.2
2023-01-13T16:29:13.768Z,8.3
2023-01-13T16:29:21.071Z,8.2
2023-01-13T16:29:41.687Z,8.2
2023-01-13T16:30:32.117Z,8.1
2023-01-13T16:31:32.007Z,8.1
2023-01-13T16:32:31.559Z,8.1
2023-01-13T16:33:31.661Z,8.1
2023-01-13T16:34:31.571Z,8.1
2023-01-13T16:35:31.585Z,8.1
2023-01-13T16:36:32.285Z,8.2
2023-01-13T16:37:32.142Z,8.2
2023-01-13T16:38:31.585Z,8.1
2023-01-13T16:39:31.582Z,8.1
2023-01-13T16:40:31.868Z,8.1
2023-01-13T16:41:31.606Z,8.1
2023-01-13T16:42:31.580Z,8
2023-01-13T16:43:32.304Z,8
2023-01-13T16:44:31.585Z,7.9
2023-01-13T16:45:32.445Z,7.9
2023-01-13T16:46:31.987Z,7.9
2023-01-13T16:47:32.260Z,8
2023-01-13T16:48:31.592Z,8
2023-01-13T16:49:32.295Z,8
2023-01-13T16:50:31.591Z,8
2023-01-13T16:51:31.687Z,8
2023-01-13T16:52:31.833Z,8
2023-01-13T16:53:32.237Z,8
2023-01-13T16:54:31.877Z,8
2023-01-13T16:55:32.529Z,8
2023-01-13T16:56:30.418Z,8.1
2023-01-13T16:57:31.634Z,8.1
2023-01-13T16:58:31.958Z,8
2023-01-13T16:59:32.421Z,8
2023-01-13T17:00:31.985Z,8
2023-01-13T17:01:31.729Z,8
2023-01-13T17:02:32.254Z,8
2023-01-13T17:03:32.303Z,8
2023-01-13T17:04:31.610Z,8
2023-01-13T17:05:31.616Z,8
2023-01-13T17:06:31.616Z,8
2023-01-13T17:07:33.470Z,8.1
2023-01-13T17:08:31.606Z,8.1
2023-01-13T17:09:31.635Z,8.1
2023-01-13T17:10:32.000Z,8.1
2023-01-13T17:40:43.506Z,7.9
2023-01-13T17:47:30.471Z,7.9
2023-01-13T17:51:12.875Z,7.9
2023-01-13T17:55:32.281Z,7.9
2023-01-13T17:59:14.666Z,8
2023-01-13T18:04:11.149Z,7.9
2023-01-13T18:14:41.690Z,7.9
2023-01-13T18:35:41.918Z,8.1
2023-01-13T18:38:31.511Z,8
2023-01-13T18:39:00.635Z,8
2023-01-13T18:39:22.270Z,8
2023-01-13T18:40:31.627Z,8
2023-01-13T18:41:31.645Z,8.1
2023-01-13T18:42:31.670Z,8.1
2023-01-13T18:43:31.638Z,8.1
2023-01-13T18:44:31.634Z,8.1
2023-01-13T18:45:31.634Z,8.1
2023-01-13T18:46:32.399Z,8.1
2023-01-13T18:47:31.633Z,8.1
2023-01-13T18:48:32.102Z,8.1
2023-01-13T18:49:32.367Z,8.1
2023-01-13T18:50:32.114Z,8.1
2023-01-13T18:51:31.639Z,8.1
2023-01-13T18:52:31.899Z,8.1
2023-01-13T18:53:32.393Z,8.1
2023-01-13T18:54:31.711Z,8.1
2023-01-13T18:55:32.416Z,8.1
2023-01-13T18:56:32.151Z,8.2
2023-01-13T18:57:31.709Z,8.2
2023-01-13T18:58:31.832Z,8.2
2023-01-13T18:59:32.077Z,8.2
2023-01-13T19:00:32.188Z,8.2
2023-01-13T19:01:31.852Z,8.2
2023-01-13T19:02:32.112Z,8.1
2023-01-13T19:03:31.646Z,8.1
2023-01-13T19:04:31.626Z,8.2
2023-01-13T19:05:31.631Z,8.1
2023-01-13T19:06:32.727Z,8.1
2023-01-13T19:07:31.656Z,8.1
2023-01-13T19:08:32.242Z,8.1
2023-01-13T19:09:32.306Z,8.2
2023-01-13T19:10:32.131Z,8.1
2023-01-13T19:11:32.191Z,8.2
2023-01-13T19:12:31.632Z,8.2
2023-01-13T19:13:31.654Z,8.2
2023-01-13T19:14:32.242Z,8.2
2023-01-13T19:15:32.338Z,8.2
2023-01-13T19:16:32.039Z,8.2
2023-01-13T19:17:31.647Z,8.1
2023-01-13T19:18:32.592Z,8.2
2023-01-13T19:31:31.555Z,8.2
2023-01-13T19:55:30.503Z,8.2
2023-01-13T19:59:12.869Z,8.1
2023-01-13T20:03:32.306Z,8
2023-01-13T20:07:14.678Z,8
2023-01-13T20:12:11.552Z,8
2023-01-13T20:17:21.507Z,7.9
2023-01-13T20:17:42.373Z,8
2023-01-13T20:18:10.210Z,8
2023-01-13T20:18:30.588Z,8.1
2023-01-13T20:19:31.649Z,7.9
2023-01-13T20:20:31.658Z,7.9
2023-01-13T20:21:32.206Z,7.9
2023-01-13T20:22:32.076Z,8
2023-01-13T20:23:31.658Z,7.9
2023-01-13T20:24:32.336Z,7.9
2023-01-13T20:25:32.377Z,7.8
2023-01-13T20:26:31.654Z,7.8
2023-01-13T20:27:31.656Z,7.8
2023-01-13T20:28:31.764Z,7.9
2023-01-13T20:29:31.907Z,7.8
2023-01-13T20:30:32.280Z,7.8
2023-01-13T20:31:32.143Z,7.8
2023-01-13T20:32:31.776Z,7.8
2023-01-13T20:33:32.343Z,7.8
2023-01-13T20:34:31.658Z,7.8
2023-01-13T20:35:32.218Z,7.8
2023-01-13T20:36:31.669Z,7.8
2023-01-13T20:37:32.351Z,7.8
2023-01-13T20:38:32.038Z,7.8
2023-01-13T20:39:32.090Z,7.8
2023-01-13T20:40:31.672Z,7.7
2023-01-13T20:41:31.662Z,7.7
2023-01-13T20:42:31.868Z,7.7
2023-01-13T20:43:32.440Z,7.7
2023-01-13T20:44:32.351Z,7.7
2023-01-13T20:45:32.240Z,7.6
2023-01-13T20:46:32.260Z,7.7
2023-01-13T20:47:31.669Z,7.7
2023-01-13T20:48:31.685Z,7.7
2023-01-13T20:49:32.635Z,7.8
2023-01-13T20:50:31.665Z,7.8
2023-01-13T20:51:32.540Z,7.8
2023-01-13T20:52:31.704Z,7.8
2023-01-13T20:53:31.687Z,7.8
2023-01-13T20:55:31.666Z,7.7
2023-01-13T20:56:32.253Z,7.7
2023-01-13T20:57:31.770Z,7.7
2023-01-13T21:33:30.523Z,8
2023-01-13T21:37:12.906Z,7.9
2023-01-13T21:41:32.344Z,7.8
2023-01-13T21:45:14.707Z,8
2023-01-13T21:50:11.613Z,7.8
2023-01-13T22:02:33.088Z,7.8
2023-01-13T22:11:31.991Z,7.7
2023-01-13T22:12:00.347Z,7.8
2023-01-13T22:12:14.584Z,7.9
2023-01-13T22:12:21.354Z,7.9
2023-01-13T22:12:42.588Z,7.7
2023-01-13T22:13:31.685Z,7.7
2023-01-13T22:14:31.682Z,7.7
2023-01-13T22:15:31.848Z,7.7
2023-01-13T22:17:32.412Z,7.6
2023-01-13T22:18:32.088Z,7.6
2023-01-13T22:19:31.698Z,7.7
2023-01-13T22:20:31.687Z,7.7
2023-01-13T22:21:31.689Z,7.7
2023-01-13T22:22:31.695Z,7.7
2023-01-13T22:23:31.685Z,7.7
2023-01-13T22:24:31.683Z,7.7
2023-01-13T22:25:32.284Z,7.6
2023-01-13T22:27:31.692Z,7.8
2023-01-13T22:28:31.908Z,7.7
2023-01-13T22:29:32.329Z,7.8
2023-01-13T22:31:31.768Z,7.7
2023-01-13T22:32:31.688Z,7.8
2023-01-13T22:33:31.702Z,7.7
2023-01-13T22:34:32.066Z,7.7
2023-01-13T22:35:31.711Z,7.7
2023-01-13T22:37:31.697Z,7.8
2023-01-13T22:38:32.154Z,7.8
2023-01-13T22:39:31.979Z,7.8
2023-01-13T22:40:31.765Z,7.8
2023-01-13T22:41:31.683Z,7.8
2023-01-13T22:42:32.106Z,7.8
2023-01-13T22:43:31.689Z,7.8
2023-01-13T22:44:31.692Z,7.7
2023-01-13T22:45:32.215Z,7.8
2023-01-13T22:46:31.799Z,7.8
2023-01-13T22:47:31.691Z,7.8
2023-01-13T22:48:31.966Z,7.8
2023-01-13T22:49:31.773Z,7.8
2023-01-13T22:50:31.692Z,7.8
2023-01-13T22:51:32.265Z,7.8
2023-01-13T22:52:32.019Z,7.7
2023-01-13T22:53:31.719Z,7.7
2023-01-13T23:29:30.558Z,7.9
2023-01-13T23:33:12.924Z,8
2023-01-13T23:37:32.358Z,7.9
2023-01-13T23:41:14.732Z,7.9
2023-01-13T23:46:11.709Z,7.9
2023-01-13T23:51:22.551Z,7.9
2023-01-13T23:52:12.793Z,7.8
2023-01-13T23:52:40.971Z,7.9
2023-01-13T23:53:31.705Z,7.9
2023-01-13T23:54:31.714Z,7.9
2023-01-13T23:55:31.711Z,7.9
2023-01-13T23:56:32.274Z,7.9
2023-01-13T23:57:31.710Z,7.9
2023-01-13T23:58:31.900Z,7.8
2023-01-13T23:59:31.783Z,7.8
